.
WxDataArchive / Data Records for 2013-08-28
2013-08-27 August 2013 2013-08-29

Data Records for Wednesday, 28 August 2013

Time	Temp	Chill	HIndex	Humid	Dewpt	 Wind 	HiWind	WindDir	Rain 	Barom 
-----	----	-----	------	-----	-----	------	------	-------	-----	----- 
00:00	81.2	81.2	84.8	69	70.0	1	3	270	0.00	29.867 
00:05	81.2	81.2	84.8	69	70.0	1	3	248	0.00	29.867 
00:10	81.2	81.2	85.2	71	70.9	1	3	248	0.00	29.867 
00:15	81.1	81.1	84.6	69	69.9	1	3	248	0.00	29.859 
00:20	81.1	81.1	84.6	69	69.9	1	3	270	0.00	29.859 
00:25	81.1	81.1	84.6	69	69.9	0	2	270	0.00	29.859 
00:30	81.1	81.1	84.6	69	69.9	1	4	248	0.00	29.848 
00:35	80.9	80.9	84.3	69	69.8	1	4	270	0.00	29.848 
00:40	80.7	80.7	84.0	69	69.6	0	3	292	0.00	29.848 
00:45	80.7	80.7	84.0	69	69.6	0	3	292	0.00	29.848 
00:50	80.5	80.5	83.6	69	69.4	1	4	270	0.00	29.848 
00:55	80.5	80.5	83.6	69	69.4	1	4	292	0.00	29.848 
01:00	80.5	80.5	83.6	69	69.4	1	3	292	0.00	29.851 
01:05	80.3	80.3	83.4	70	69.6	0	1	292	0.00	29.851 
01:10	80.3	80.3	83.3	69	69.2	1	2	292	0.00	29.851 
01:15	80.3	80.3	83.3	69	69.2	0	3	292	0.00	29.840 
01:20	80.3	80.3	83.3	69	69.2	1	6	270	0.00	29.840 
01:25	80.3	80.3	83.3	69	69.2	0	3	292	0.00	29.840 
01:30	80.3	80.3	83.3	69	69.2	1	4	292	0.00	29.840 
01:35	80.1	80.1	83.0	69	69.0	1	3	292	0.00	29.840 
01:40	80.1	80.1	83.0	69	69.0	1	3	292	0.00	29.840 
01:45	80.1	80.1	83.0	69	69.0	1	5	270	0.00	29.829 
01:50	80.1	80.1	83.0	69	69.0	1	4	270	0.00	29.829 
01:55	79.9	79.9	82.7	69	68.8	1	4	248	0.00	29.829 
02:00	79.9	79.9	82.7	69	68.8	1	5	248	0.00	29.837 
02:05	79.9	79.9	82.7	69	68.8	1	4	270	0.00	29.837 
02:10	79.8	79.8	82.6	70	69.1	1	3	270	0.00	29.837 
02:15	79.8	79.8	82.6	70	69.1	1	2	270	0.00	29.837 
02:20	79.6	79.6	82.3	70	68.9	1	4	270	0.00	29.837 
02:25	79.4	79.4	82.0	70	68.7	1	3	270	0.00	29.837 
02:30	79.4	79.4	82.0	70	68.7	1	3	270	0.00	29.837 
02:35	79.2	79.2	81.7	70	68.5	1	3	270	0.00	29.837 
02:40	79.2	79.2	81.7	70	68.5	1	3	270	0.00	29.837 
02:45	79.2	79.2	81.7	70	68.5	1	3	270	0.00	29.829 
02:50	79.0	79.0	81.4	70	68.4	1	4	270	0.00	29.829 
02:55	79.0	79.0	81.5	71	68.8	1	3	270	0.00	29.829 
03:00	79.0	79.0	81.5	71	68.8	0	3	270	0.00	29.820 
03:05	79.0	79.0	81.4	70	68.4	1	3	292	0.00	29.820 
03:10	79.0	79.0	81.4	70	68.4	1	3	292	0.00	29.820 
03:15	79.0	79.0	81.4	70	68.4	1	5	270	0.00	29.818 
03:20	79.0	79.0	81.3	69	67.9	2	7	270	0.00	29.818 
03:25	79.2	79.2	81.6	69	68.1	1	2	270	0.00	29.818 
03:30	79.0	79.0	81.3	69	67.9	1	3	270	0.00	29.816 
03:35	79.0	79.0	81.4	70	68.4	1	5	270	0.00	29.816 
03:40	79.0	79.0	81.3	69	67.9	2	7	270	0.00	29.816 
03:45	79.0	79.0	81.3	68	67.5	2	6	270	0.00	29.809 
03:50	79.2	79.2	81.5	68	67.7	1	4	270	0.00	29.809 
03:55	79.0	79.0	81.3	68	67.5	1	6	270	0.00	29.809 
04:00	79.0	79.0	81.3	68	67.5	1	5	270	0.00	29.815 
04:05	79.0	79.0	81.2	67	67.1	2	6	270	0.00	29.815 
04:10	79.0	79.0	81.2	67	67.1	1	4	270	0.00	29.815 
04:15	79.0	79.0	81.3	68	67.5	2	5	270	0.00	29.822 
04:20	78.8	78.8	81.0	68	67.3	1	4	270	0.00	29.822 
04:25	78.6	78.6	80.8	69	67.6	2	4	270	0.00	29.822 
04:30	78.5	78.5	80.7	69	67.5	2	5	270	0.00	29.823 
04:35	78.3	78.3	80.4	69	67.3	1	5	270	0.00	29.823 
04:40	78.1	78.1	80.2	70	67.5	1	4	270	0.00	29.823 
04:45	77.9	77.9	79.9	70	67.3	2	6	270	0.00	29.823 
04:50	77.9	77.9	79.9	71	67.7	2	5	270	0.00	29.823 
04:55	77.7	77.7	79.7	71	67.5	2	5	270	0.00	29.823 
05:00	77.6	77.6	79.5	71	67.4	1	4	270	0.00	29.821 
05:05	77.4	77.4	79.3	71	67.2	1	4	270	0.00	29.821 
05:10	77.4	77.4	79.3	72	67.6	1	3	270	0.00	29.821 
05:15	77.2	77.2	79.0	72	67.5	1	4	270	0.00	29.823 
05:20	77.0	77.0	78.7	73	67.7	1	3	270	0.00	29.823 
05:25	77.0	77.0	78.7	73	67.7	1	4	270	0.00	29.823 
05:30	76.8	76.8	78.5	73	67.5	1	3	270	0.00	29.821 
05:35	76.7	76.7	78.3	73	67.4	1	3	270	0.00	29.821 
05:40	76.7	76.7	78.3	73	67.4	0	2	270	0.00	29.821 
05:45	76.7	76.7	78.3	73	67.4	0	2	270	0.00	29.822 
05:50	76.5	76.5	78.1	73	67.2	0	2	270	0.00	29.822 
05:55	76.5	76.5	78.1	73	67.2	0	3	270	0.00	29.822 
06:00	76.3	76.3	77.8	74	67.4	1	4	270	0.00	29.823 
06:05	76.3	76.3	77.8	74	67.4	1	3	270	0.00	29.823 
06:10	76.3	76.3	77.8	74	67.4	1	2	270	0.00	29.823 
06:15	76.3	76.3	77.8	74	67.4	0	3	270	0.00	29.824 
06:20	76.1	76.1	77.5	74	67.2	0	2	270	0.00	29.824 
06:25	76.0	76.0	77.4	75	67.5	0	2	270	0.00	29.824 
06:30	76.0	76.0	77.4	75	67.5	0	2	270	0.00	29.819 
06:35	75.8	75.8	77.1	75	67.3	0	2	270	0.00	29.819 
06:40	75.8	75.8	77.1	75	67.3	1	2	270	0.00	29.819 
06:45	75.8	75.8	77.1	75	67.3	1	3	270	0.00	29.820 
06:50	75.8	75.8	77.1	75	67.3	0	2	270	0.00	29.820 
06:55	75.6	75.6	76.9	75	67.1	0	3	270	0.00	29.820 
07:00	75.6	75.6	76.9	75	67.1	0	3	270	0.00	29.823 
07:05	75.6	75.6	76.9	75	67.1	0	1	270	0.00	29.823 
07:10	75.4	75.4	76.5	76	67.3	0	1	270	0.00	29.823 
07:15	75.4	75.4	76.5	76	67.3	1	3	270	0.00	29.824 
07:20	75.4	75.4	76.5	76	67.3	1	3	270	0.00	29.824 
07:25	75.4	75.4	76.5	76	67.3	1	4	270	0.00	29.824 
07:30	75.4	75.4	76.6	75	66.9	1	4	270	0.00	29.823 
07:35	75.6	75.6	76.9	75	67.1	0	3	270	0.00	29.823 
07:40	75.6	75.6	76.9	75	67.1	1	3	270	0.00	29.823 
07:45	75.8	75.8	77.2	74	66.9	1	3	270	0.00	29.822 
07:50	75.8	75.8	77.2	74	66.9	1	4	270	0.00	29.822 
07:55	76.0	76.0	77.4	74	67.1	2	5	270	0.00	29.822 
08:00	76.0	76.0	77.5	73	66.7	1	3	270	0.00	29.819 
08:05	76.1	76.1	77.6	73	66.8	1	4	270	0.00	29.819 
08:10	76.1	76.1	77.6	73	66.8	2	4	270	0.00	29.819 
08:15	76.3	76.3	77.8	73	67.0	2	4	270	0.00	29.825 
08:20	76.5	76.5	78.1	73	67.2	1	4	270	0.00	29.825 
08:25	76.7	76.7	78.4	72	67.0	2	5	270	0.00	29.825 
08:30	76.7	76.7	78.4	72	67.0	2	4	270	0.00	29.825 
08:35	76.8	76.8	78.5	72	67.1	2	5	270	0.00	29.825 
08:40	76.8	76.8	78.5	71	66.7	3	5	270	0.00	29.825 
08:45	77.0	77.0	78.8	71	66.9	3	6	270	0.00	29.827 
08:50	77.2	77.2	79.0	71	67.0	2	4	270	0.00	29.827 
08:55	77.4	77.4	79.3	70	66.8	2	4	270	0.00	29.827 
09:00	77.4	77.4	79.3	70	66.8	2	4	270	0.00	29.827 
09:05	77.7	77.7	79.6	69	66.7	2	4	270	0.00	29.827 
09:10	77.9	77.9	79.9	69	66.9	1	4	270	0.00	29.827 
09:15	78.1	78.1	80.1	69	67.1	1	3	270	0.00	29.831 
09:20	78.5	78.5	80.6	68	67.0	1	4	270	0.00	29.831 
09:25	78.6	78.6	80.7	68	67.1	2	6	270	0.00	29.831 
09:30	79.0	79.0	81.2	67	67.1	1	2	270	0.00	29.830 
09:35	79.2	79.2	81.4	66	66.8	2	6	315	0.00	29.830 
09:40	79.4	79.4	81.6	66	67.0	3	5	270	0.00	29.830 
09:45	79.6	79.6	81.8	65	66.8	3	6	292	0.00	29.836 
09:50	79.9	79.9	82.2	65	67.1	3	6	270	0.00	29.836 
09:55	80.1	80.1	82.5	65	67.2	2	4	270	0.00	29.836 
10:00	80.3	80.3	82.8	65	67.4	2	5	270	0.00	29.842 
10:05	80.7	80.7	83.4	65	67.8	1	3	270	0.00	29.842 
10:10	81.1	81.1	83.8	64	67.7	2	4	270	0.00	29.842 
10:15	81.4	81.4	84.3	64	68.0	1	4	315	0.00	29.842 
10:20	81.6	81.6	84.4	63	67.8	2	5	270	0.00	29.842 
10:25	81.8	81.8	84.7	63	67.9	2	5	315	0.00	29.842 
10:30	82.0	82.0	85.0	63	68.1	2	4	338	0.00	29.845 
10:35	82.4	82.4	85.6	63	68.5	2	4	292	0.00	29.845 
10:40	82.8	82.8	86.1	62	68.4	2	4	292	0.00	29.845 
10:45	83.2	83.2	86.9	63	69.3	2	6	270	0.00	29.851 
10:50	83.2	83.2	86.7	62	68.8	3	5	270	0.00	29.851 
10:55	83.4	83.4	87.3	63	69.5	2	4	315	0.00	29.851 
11:00	83.6	83.6	87.4	62	69.2	2	5	338	0.00	29.847 
11:05	84.1	84.1	88.5	63	70.1	2	4	315	0.00	29.847 
11:10	84.5	84.5	89.0	62	70.0	2	5	315	0.00	29.847 
11:15	84.5	84.5	89.0	62	70.0	2	3	315	0.00	29.854 
11:20	84.9	84.9	89.7	62	70.4	1	4	315	0.00	29.854 
11:25	85.1	85.1	90.1	62	70.6	2	4	338	0.00	29.854 
11:30	84.9	84.9	89.7	62	70.4	1	5	338	0.00	29.855 
11:35	84.5	84.5	89.3	63	70.5	2	6	338	0.00	29.855 
11:40	83.8	83.8	88.3	64	70.3	1	3	338	0.00	29.855 
11:45	83.2	83.2	87.5	65	70.2	1	3	338	0.00	29.860 
11:50	83.0	83.0	87.3	66	70.4	0	3	338	0.00	29.860 
11:55	82.6	82.6	86.6	66	70.1	1	2	338	0.00	29.860 
12:00	82.6	82.6	86.6	66	70.1	1	4	292	0.00	29.866 
12:05	82.4	82.4	86.7	68	70.8	1	5	338	0.00	29.866 
12:10	82.4	82.4	86.7	68	70.8	2	3	338	0.00	29.866 
12:15	82.4	82.4	86.7	68	70.8	0	3	338	0.00	29.870 
12:20	82.4	82.4	86.7	68	70.8	1	4	338	0.00	29.870 
12:25	82.8	82.8	87.5	68	71.1	1	4	270	0.00	29.870 
12:30	83.2	83.2	88.0	67	71.1	1	4	292	0.00	29.861 
12:35	83.8	83.8	89.1	67	71.6	1	4	292	0.00	29.861 
12:40	83.8	83.8	88.8	66	71.2	2	6	0	0.00	29.861 
12:45	83.6	83.6	89.0	68	71.9	0	3	0	0.00	29.861 
12:50	83.6	83.6	89.0	68	71.9	1	4	338	0.00	29.861 
12:55	83.4	83.4	88.6	68	71.7	1	3	338	0.00	29.861 
13:00	83.2	83.2	88.5	69	71.9	1	4	338	0.00	29.862 
13:05	82.8	82.8	88.0	70	72.0	1	4	338	0.00	29.862 
13:10	82.4	82.4	87.2	70	71.6	1	3	338	0.00	29.862 
13:15	82.4	82.4	87.4	71	72.0	1	4	338	0.00	29.867 
13:20	82.6	82.6	87.8	71	72.2	1	3	338	0.00	29.867 
13:25	83.0	83.0	88.7	71	72.6	0	3	338	0.00	29.867 
13:30	83.2	83.2	88.8	70	72.4	1	3	338	0.00	29.864 
13:35	83.6	83.6	89.3	69	72.3	1	3	338	0.00	29.864 
13:40	84.1	84.1	90.0	68	72.4	1	3	315	0.00	29.864 
13:45	85.3	85.3	92.6	68	73.5	1	3	315	0.00	29.861 
13:50	85.5	85.5	91.9	65	72.4	1	4	315	0.00	29.861 
13:55	85.3	85.3	91.5	65	72.2	1	3	315	0.00	29.861 
14:00	84.9	84.9	91.0	66	72.2	1	4	315	0.00	29.868 
14:05	84.5	84.5	90.5	67	72.3	1	3	315	0.00	29.868 
14:10	84.3	84.3	90.1	67	72.1	1	2	315	0.00	29.868 
14:15	84.1	84.1	90.0	68	72.4	2	6	315	0.00	29.872 
14:20	84.3	84.3	90.5	68	72.6	1	5	338	0.00	29.872 
14:25	85.1	85.1	91.8	67	72.9	2	5	315	0.00	29.872 
14:30	85.9	85.9	92.4	64	72.3	1	3	315	0.00	29.870 
14:35	86.1	86.1	93.2	65	72.9	1	4	292	0.00	29.870 
14:40	85.3	85.3	91.9	66	72.6	1	3	292	0.00	29.870 
14:45	84.7	84.7	91.3	68	72.9	0	2	292	0.00	29.871 
14:50	84.3	84.3	90.5	68	72.6	1	3	315	0.00	29.871 
14:55	84.5	84.5	91.2	69	73.2	0	1	315	0.00	29.871 
15:00	85.3	85.3	91.9	66	72.6	1	4	315	0.00	29.870 
15:05	85.5	85.5	91.9	65	72.4	2	5	338	0.00	29.870 
15:10	85.7	85.7	92.3	65	72.5	1	4	0	0.00	29.870 
15:15	86.3	86.3	92.4	62	71.7	1	3	315	0.00	29.869 
15:20	86.7	86.7	93.3	62	72.1	2	5	292	0.00	29.869 
15:25	87.2	87.2	94.3	62	72.6	1	4	338	0.00	29.869 
15:30	87.2	87.2	94.3	62	72.6	2	5	0	0.00	29.869 
15:35	87.2	87.2	93.5	60	71.6	1	5	315	0.00	29.869 
15:40	86.3	86.3	91.7	60	70.7	2	4	315	0.00	29.869 
15:45	85.9	85.9	91.6	62	71.3	1	3	315	0.00	29.871 
15:50	85.9	85.9	91.3	61	70.9	2	4	315	0.00	29.871 
15:55	86.1	86.1	92.0	62	71.5	1	5	315	0.00	29.871 
16:00	86.1	86.1	92.0	62	71.5	1	4	292	0.00	29.866 
16:05	86.5	86.5	92.1	60	70.9	2	6	315	0.00	29.866 
16:10	86.5	86.5	92.1	60	70.9	0	2	315	0.00	29.866 
16:15	86.3	86.3	92.1	61	71.2	1	3	315	0.00	29.869 
16:20	86.3	86.3	92.1	61	71.2	1	2	338	0.00	29.869 
16:25	86.1	86.1	91.3	60	70.6	1	4	338	0.00	29.869 
16:30	86.5	86.5	91.3	58	69.9	1	3	338	0.00	29.871 
16:35	87.2	87.2	92.3	57	70.1	1	6	338	0.00	29.871 
16:40	87.2	87.2	91.5	55	69.0	1	4	315	0.00	29.871 
16:45	86.7	86.7	91.7	58	70.1	1	4	315	0.00	29.871 
16:50	86.1	86.1	91.7	61	71.0	1	4	315	0.00	29.871 
16:55	86.5	86.5	92.1	60	70.9	0	2	22	0.00	29.871 
17:00	87.0	87.0	92.3	58	70.4	1	3	112	0.00	29.872 
17:05	86.5	86.5	91.3	58	69.9	1	4	315	0.00	29.872 
17:10	86.1	86.1	91.3	60	70.6	1	2	315	0.00	29.872 
17:15	86.1	86.1	90.9	59	70.1	1	4	112	0.00	29.877 
17:20	86.1	86.1	90.9	59	70.1	0	2	112	0.00	29.877 
17:25	86.3	86.3	91.7	60	70.7	1	2	112	0.00	29.877 
17:30	86.7	86.7	92.1	59	70.6	1	4	0	0.00	29.880 
17:35	87.0	87.0	92.7	59	70.9	1	3	68	0.00	29.880 
17:40	86.7	86.7	92.1	59	70.6	0	2	292	0.00	29.880 
17:45	86.3	86.3	91.7	60	70.7	0	2	292	0.00	29.885 
17:50	85.7	85.7	90.9	61	70.7	1	3	315	0.00	29.885 
17:55	85.5	85.5	90.2	60	70.0	1	3	315	0.00	29.885 
18:00	85.5	85.5	90.5	61	70.5	1	4	315	0.00	29.886 
18:05	85.5	85.5	90.8	62	71.0	1	4	315	0.00	29.886 
18:10	85.3	85.3	89.8	60	69.8	1	6	338	0.00	29.886 
18:15	84.9	84.9	88.8	59	68.9	2	5	338	0.00	29.887 
18:20	84.5	84.5	88.7	61	69.5	0	2	338	0.00	29.887 
18:25	84.5	84.5	88.4	60	69.1	0	4	135	0.00	29.887 
18:30	84.5	84.5	88.4	60	69.1	0	3	135	0.00	29.888 
18:35	84.5	84.5	88.4	60	69.1	1	4	135	0.00	29.888 
18:40	84.5	84.5	89.0	62	70.0	0	2	315	0.00	29.888 
18:45	84.5	84.5	89.0	62	70.0	1	4	315	0.00	29.887 
18:50	84.5	84.5	89.0	62	70.0	0	2	315	0.00	29.887 
18:55	84.3	84.3	88.3	61	69.4	1	4	315	0.00	29.887 
19:00	84.1	84.1	88.0	61	69.2	1	4	292	0.00	29.889 
19:05	84.0	84.0	88.1	62	69.5	0	2	292	0.00	29.889 
19:10	83.6	83.6	87.6	63	69.6	0	1	292	0.00	29.889 
19:15	83.4	83.4	87.6	64	69.9	0	1	292	0.00	29.893 
19:20	83.2	83.2	87.5	65	70.2	0	1	292	0.00	29.893 
19:25	83.0	83.0	87.1	65	70.0	1	4	292	0.00	29.893 
19:30	82.8	82.8	86.5	64	69.3	1	3	292	0.00	29.898 
19:35	82.6	82.6	86.4	65	69.6	0	2	292	0.00	29.898 
19:40	82.6	82.6	86.6	66	70.1	0	2	292	0.00	29.898 
19:45	82.2	82.2	85.9	66	69.7	1	3	292	0.00	29.906 
19:50	81.8	81.8	85.1	65	68.9	1	3	315	0.00	29.906 
19:55	81.4	81.4	84.4	65	68.5	0	3	315	0.00	29.906 
20:00	81.2	81.2	84.3	66	68.7	0	3	158	0.00	29.909 
20:05	81.1	81.1	84.3	67	69.1	0	2	158	0.00	29.909 
20:10	80.9	80.9	84.1	68	69.3	0	1	158	0.00	29.909 
20:15	80.5	80.5	83.6	69	69.4	0	1	158	0.00	29.909 
20:20	80.3	80.3	83.3	69	69.2	0	1	158	0.00	29.909 
20:25	80.1	80.1	83.1	70	69.4	0	1	158	0.00	29.909 
20:30	79.8	79.8	82.7	71	69.5	0	1	158	0.00	29.920 
20:35	79.6	79.6	82.5	72	69.8	0	1	158	0.00	29.920 
20:40	79.4	79.4	82.3	73	70.0	0	1	158	0.00	29.920 
20:45	79.2	79.2	82.0	73	69.8	0	1	158	0.00	29.924 
20:50	79.2	79.2	82.1	74	70.2	0	2	158	0.00	29.924 
20:55	79.0	79.0	81.8	75	70.4	0	2	180	0.00	29.924 
21:00	78.8	78.8	81.5	75	70.2	0	2	180	0.00	29.931 
21:05	78.6	78.6	81.2	76	70.4	0	1	180	0.00	29.931 
21:10	78.6	78.6	81.2	76	70.4	1	4	338	0.00	29.931 
21:15	78.5	78.5	81.0	76	70.3	0	3	338	0.00	29.941 
21:20	78.3	78.3	80.7	77	70.5	0	1	338	0.00	29.941 
21:25	78.3	78.3	80.7	77	70.5	0	1	338	0.00	29.941 
21:30	78.1	78.1	80.4	77	70.3	0	2	338	0.00	29.950 
21:35	77.9	77.9	80.1	77	70.1	0	1	338	0.00	29.950 
21:40	77.9	77.9	80.1	78	70.5	0	2	338	0.00	29.950 
21:45	77.7	77.7	79.7	78	70.3	0	1	338	0.00	29.949 
21:50	77.7	77.7	79.8	79	70.7	0	3	135	0.00	29.949 
21:55	77.6	77.6	79.6	79	70.6	0	1	135	0.00	29.949 
22:00	77.4	77.4	79.2	80	70.7	0	1	135	0.00	29.951 
22:05	77.2	77.2	78.9	80	70.5	0	2	135	0.00	29.951 
22:10	77.2	77.2	78.9	80	70.5	0	1	135	0.00	29.951 
22:15	77.0	77.0	78.5	81	70.7	0	1	135	0.00	29.952 
22:20	76.8	76.8	78.2	81	70.5	0	1	135	0.00	29.952 
22:25	76.7	76.7	78.0	81	70.4	0	1	135	0.00	29.952 
22:30	76.7	76.7	78.0	82	70.8	0	1	135	0.00	29.958 
22:35	76.5	76.5	77.7	82	70.6	0	1	135	0.00	29.958 
22:40	76.5	76.5	77.7	82	70.6	0	1	135	0.00	29.958 
22:45	76.3	76.3	77.3	82	70.4	0	1	135	0.00	29.964 
22:50	76.3	76.3	77.3	82	70.4	0	1	135	0.00	29.964 
22:55	76.1	76.1	76.9	83	70.5	0	1	135	0.00	29.964 
23:00	76.0	76.0	76.7	83	70.4	0	1	135	0.00	29.963 
23:05	75.8	75.8	76.4	83	70.3	0	1	135	0.00	29.963 
23:10	75.8	75.8	76.3	84	70.6	0	1	135	0.00	29.963 
23:15	75.6	75.6	76.0	84	70.4	0	1	135	0.00	29.968 
23:20	75.4	75.4	75.7	84	70.2	0	1	135	0.00	29.968 
23:25	75.4	75.4	75.7	84	70.2	0	1	135	0.00	29.968 
23:30	75.3	75.3	75.5	84	70.1	0	1	135	0.00	29.970 
23:35	75.3	75.3	75.4	85	70.5	0	0	---	0.00	29.970 
23:40	75.1	75.1	75.0	85	70.3	0	1	135	0.00	29.970 
23:45	75.1	75.1	75.0	85	70.3	0	0	---	0.00	29.969 
23:50	74.9	74.9	74.9	85	70.1	0	0	---	0.00	29.969 
23:55	74.7	74.7	74.7	85	69.9	0	0	---	0.00	29.969 

CoCoRaHS
IN-AL-39
A2 Web Hosting
Creative Commons License
GoDaddy
search engine by freefind advanced

loaded 2018-11-15 05:10:10 • last modified 2010-11-18 10:43:29
Privacy PolicyDisclaimer
• wx.awcolley.com is powered by PmWiki v.2002016 •
• all content (unless otherwise noted) © 2018 A W Colley